sensor_id;sensor_type;location;lat;lon;timestamp;P1;durP1;ratioP1;P2;durP2;ratioP2
51298;SDS011;37382;45.192;9.790;2023-03-14T00:01:43;16.52;;;9.27;;
51298;SDS011;37382;45.192;9.790;2023-03-14T00:04:11;11.30;;;8.65;;
51298;SDS011;37382;45.192;9.790;2023-03-14T00:06:39;13.52;;;8.30;;
51298;SDS011;37382;45.192;9.790;2023-03-14T00:09:07;17.65;;;8.73;;
51298;SDS011;37382;45.192;9.790;2023-03-14T00:11:35;14.40;;;8.35;;
51298;SDS011;37382;45.192;9.790;2023-03-14T00:14:02;20.30;;;9.10;;
51298;SDS011;37382;45.192;9.790;2023-03-14T00:16:29;18.80;;;8.88;;
51298;SDS011;37382;45.192;9.790;2023-03-14T00:19:00;18.25;;;8.60;;
51298;SDS011;37382;45.192;9.790;2023-03-14T00:21:28;14.27;;;8.57;;
51298;SDS011;37382;45.192;9.790;2023-03-14T00:23:55;14.77;;;8.20;;
51298;SDS011;37382;45.192;9.790;2023-03-14T00:26:23;14.98;;;7.95;;
51298;SDS011;37382;45.192;9.790;2023-03-14T00:28:51;13.15;;;8.23;;
51298;SDS011;37382;45.192;9.790;2023-03-14T00:31:20;10.30;;;7.95;;
51298;SDS011;37382;45.192;9.790;2023-03-14T00:33:47;11.63;;;7.78;;
51298;SDS011;37382;45.192;9.790;2023-03-14T00:36:16;11.13;;;7.82;;
51298;SDS011;37382;45.192;9.790;2023-03-14T00:38:48;18.38;;;8.60;;
51298;SDS011;37382;45.192;9.790;2023-03-14T00:41:18;10.25;;;7.80;;
51298;SDS011;37382;45.192;9.790;2023-03-14T00:43:49;15.90;;;8.68;;
51298;SDS011;37382;45.192;9.790;2023-03-14T00:46:17;22.77;;;8.73;;
51298;SDS011;37382;45.192;9.790;2023-03-14T00:48:45;13.95;;;9.43;;
51298;SDS011;37382;45.192;9.790;2023-03-14T00:51:13;15.40;;;9.95;;
51298;SDS011;37382;45.192;9.790;2023-03-14T00:53:43;14.32;;;10.15;;
51298;SDS011;37382;45.192;9.790;2023-03-14T00:56:11;17.52;;;9.35;;
51298;SDS011;37382;45.192;9.790;2023-03-14T00:58:39;14.02;;;9.50;;
51298;SDS011;37382;45.192;9.790;2023-03-14T01:03:36;17.73;;;11.07;;
51298;SDS011;37382;45.192;9.790;2023-03-14T01:06:17;16.75;;;10.68;;
51298;SDS011;37382;45.192;9.790;2023-03-14T01:08:47;18.60;;;10.63;;
51298;SDS011;37382;45.192;9.790;2023-03-14T01:11:16;19.40;;;11.18;;
51298;SDS011;37382;45.192;9.790;2023-03-14T01:13:46;20.33;;;10.85;;
51298;SDS011;37382;45.192;9.790;2023-03-14T01:16:15;23.75;;;10.77;;
51298;SDS011;37382;45.192;9.790;2023-03-14T01:18:43;16.98;;;10.77;;
51298;SDS011;37382;45.192;9.790;2023-03-14T01:21:13;21.17;;;10.35;;
51298;SDS011;37382;45.192;9.790;2023-03-14T01:23:41;17.60;;;9.57;;
51298;SDS011;37382;45.192;9.790;2023-03-14T01:26:14;18.70;;;10.50;;
51298;SDS011;37382;45.192;9.790;2023-03-14T01:28:43;15.73;;;10.55;;
51298;SDS011;37382;45.192;9.790;2023-03-14T01:31:11;18.35;;;10.10;;
51298;SDS011;37382;45.192;9.790;2023-03-14T01:33:39;20.27;;;11.57;;
51298;SDS011;37382;45.192;9.790;2023-03-14T01:36:09;19.58;;;11.05;;
51298;SDS011;37382;45.192;9.790;2023-03-14T01:38:38;18.23;;;10.80;;
51298;SDS011;37382;45.192;9.790;2023-03-14T01:41:13;26.90;;;11.67;;
51298;SDS011;37382;45.192;9.790;2023-03-14T01:43:44;17.42;;;10.52;;
51298;SDS011;37382;45.192;9.790;2023-03-14T01:46:25;17.67;;;10.50;;
51298;SDS011;37382;45.192;9.790;2023-03-14T01:51:46;27.77;;;11.70;;
51298;SDS011;37382;45.192;9.790;2023-03-14T01:54:16;17.98;;;10.55;;
51298;SDS011;37382;45.192;9.790;2023-03-14T01:57:03;19.00;;;9.20;;
51298;SDS011;37382;45.192;9.790;2023-03-14T01:59:36;19.60;;;9.63;;
51298;SDS011;37382;45.192;9.790;2023-03-14T02:02:05;16.17;;;9.73;;
51298;SDS011;37382;45.192;9.790;2023-03-14T02:04:35;20.95;;;9.40;;
51298;SDS011;37382;45.192;9.790;2023-03-14T02:09:44;17.25;;;10.02;;
51298;SDS011;37382;45.192;9.790;2023-03-14T02:12:20;15.25;;;10.10;;
51298;SDS011;37382;45.192;9.790;2023-03-14T02:15:07;21.30;;;11.27;;
51298;SDS011;37382;45.192;9.790;2023-03-14T02:17:55;20.60;;;11.15;;
51298;SDS011;37382;45.192;9.790;2023-03-14T02:23:09;19.85;;;10.20;;
51298;SDS011;37382;45.192;9.790;2023-03-14T02:25:42;16.45;;;10.50;;
51298;SDS011;37382;45.192;9.790;2023-03-14T02:28:12;23.08;;;10.50;;
51298;SDS011;37382;45.192;9.790;2023-03-14T02:30:40;19.42;;;10.20;;
51298;SDS011;37382;45.192;9.790;2023-03-14T02:33:09;23.50;;;10.65;;
51298;SDS011;37382;45.192;9.790;2023-03-14T02:38:15;23.80;;;11.02;;
51298;SDS011;37382;45.192;9.790;2023-03-14T02:41:05;15.88;;;11.15;;
51298;SDS011;37382;45.192;9.790;2023-03-14T02:43:38;17.67;;;11.13;;
51298;SDS011;37382;45.192;9.790;2023-03-14T02:46:13;18.15;;;11.98;;
51298;SDS011;37382;45.192;9.790;2023-03-14T02:48:45;29.58;;;12.63;;
51298;SDS011;37382;45.192;9.790;2023-03-14T02:51:21;27.13;;;12.95;;
51298;SDS011;37382;45.192;9.790;2023-03-14T02:53:51;21.00;;;12.52;;
51298;SDS011;37382;45.192;9.790;2023-03-14T02:56:22;18.48;;;11.90;;
51298;SDS011;37382;45.192;9.790;2023-03-14T02:58:49;15.57;;;11.32;;
51298;SDS011;37382;45.192;9.790;2023-03-14T03:01:35;17.95;;;12.50;;
51298;SDS011;37382;45.192;9.790;2023-03-14T03:04:03;26.27;;;13.50;;
51298;SDS011;37382;45.192;9.790;2023-03-14T03:06:31;21.05;;;13.02;;
51298;SDS011;37382;45.192;9.790;2023-03-14T03:09:00;19.05;;;13.07;;
51298;SDS011;37382;45.192;9.790;2023-03-14T03:11:27;25.40;;;13.98;;
51298;SDS011;37382;45.192;9.790;2023-03-14T03:13:55;21.00;;;13.07;;
51298;SDS011;37382;45.192;9.790;2023-03-14T03:16:23;21.73;;;13.70;;
51298;SDS011;37382;45.192;9.790;2023-03-14T03:18:50;20.15;;;12.75;;
51298;SDS011;37382;45.192;9.790;2023-03-14T03:21:20;21.17;;;14.07;;
51298;SDS011;37382;45.192;9.790;2023-03-14T03:23:50;17.70;;;12.27;;
51298;SDS011;37382;45.192;9.790;2023-03-14T03:26:20;22.75;;;13.18;;
51298;SDS011;37382;45.192;9.790;2023-03-14T03:28:50;24.02;;;13.52;;
51298;SDS011;37382;45.192;9.790;2023-03-14T03:31:18;22.35;;;13.60;;
51298;SDS011;37382;45.192;9.790;2023-03-14T03:33:46;26.15;;;13.65;;
51298;SDS011;37382;45.192;9.790;2023-03-14T03:36:14;19.50;;;13.52;;
51298;SDS011;37382;45.192;9.790;2023-03-14T03:38:42;18.70;;;13.25;;
51298;SDS011;37382;45.192;9.790;2023-03-14T03:41:09;28.45;;;15.82;;
51298;SDS011;37382;45.192;9.790;2023-03-14T03:43:36;38.50;;;19.58;;
51298;SDS011;37382;45.192;9.790;2023-03-14T03:46:07;44.83;;;22.47;;
51298;SDS011;37382;45.192;9.790;2023-03-14T03:48:35;25.08;;;13.77;;
51298;SDS011;37382;45.192;9.790;2023-03-14T03:51:04;21.60;;;13.05;;
51298;SDS011;37382;45.192;9.790;2023-03-14T03:53:34;21.70;;;12.27;;
51298;SDS011;37382;45.192;9.790;2023-03-14T03:56:06;25.67;;;13.73;;
51298;SDS011;37382;45.192;9.790;2023-03-14T03:58:34;23.50;;;12.65;;
51298;SDS011;37382;45.192;9.790;2023-03-14T04:01:02;29.23;;;12.88;;
51298;SDS011;37382;45.192;9.790;2023-03-14T04:03:30;28.85;;;12.18;;
51298;SDS011;37382;45.192;9.790;2023-03-14T04:05:59;17.63;;;11.82;;
51298;SDS011;37382;45.192;9.790;2023-03-14T04:08:26;19.92;;;11.52;;
51298;SDS011;37382;45.192;9.790;2023-03-14T04:10:57;24.88;;;12.10;;
51298;SDS011;37382;45.192;9.790;2023-03-14T04:13:50;26.50;;;11.98;;
51298;SDS011;37382;45.192;9.790;2023-03-14T04:16:23;19.92;;;11.25;;
51298;SDS011;37382;45.192;9.790;2023-03-14T04:19:00;20.20;;;11.75;;
51298;SDS011;37382;45.192;9.790;2023-03-14T04:21:29;15.93;;;11.07;;
51298;SDS011;37382;45.192;9.790;2023-03-14T04:23:57;19.00;;;11.10;;
51298;SDS011;37382;45.192;9.790;2023-03-14T04:28:57;21.45;;;10.95;;
51298;SDS011;37382;45.192;9.790;2023-03-14T04:31:24;19.02;;;11.88;;
51298;SDS011;37382;45.192;9.790;2023-03-14T04:33:52;23.40;;;11.18;;
51298;SDS011;37382;45.192;9.790;2023-03-14T04:36:27;22.63;;;10.70;;
51298;SDS011;37382;45.192;9.790;2023-03-14T04:38:56;21.05;;;10.63;;
51298;SDS011;37382;45.192;9.790;2023-03-14T04:41:25;16.90;;;11.40;;
51298;SDS011;37382;45.192;9.790;2023-03-14T04:43:53;18.90;;;10.82;;
51298;SDS011;37382;45.192;9.790;2023-03-14T04:46:21;24.30;;;11.88;;
51298;SDS011;37382;45.192;9.790;2023-03-14T04:48:49;26.17;;;11.85;;
51298;SDS011;37382;45.192;9.790;2023-03-14T04:51:18;17.35;;;11.02;;
51298;SDS011;37382;45.192;9.790;2023-03-14T04:53:45;22.30;;;12.10;;
51298;SDS011;37382;45.192;9.790;2023-03-14T04:56:14;17.55;;;11.88;;
51298;SDS011;37382;45.192;9.790;2023-03-14T04:58:43;22.67;;;12.38;;
51298;SDS011;37382;45.192;9.790;2023-03-14T05:01:16;26.83;;;13.57;;
51298;SDS011;37382;45.192;9.790;2023-03-14T05:04:04;29.08;;;13.90;;
51298;SDS011;37382;45.192;9.790;2023-03-14T05:06:49;23.55;;;13.63;;
51298;SDS011;37382;45.192;9.790;2023-03-14T05:09:29;21.80;;;14.25;;
51298;SDS011;37382;45.192;9.790;2023-03-14T05:12:00;25.83;;;15.82;;
51298;SDS011;37382;45.192;9.790;2023-03-14T05:14:38;26.60;;;15.18;;
51298;SDS011;37382;45.192;9.790;2023-03-14T05:17:24;26.77;;;15.60;;
51298;SDS011;37382;45.192;9.790;2023-03-14T05:20:12;21.60;;;15.15;;
51298;SDS011;37382;45.192;9.790;2023-03-14T05:22:53;29.58;;;16.17;;
51298;SDS011;37382;45.192;9.790;2023-03-14T05:25:42;26.73;;;15.88;;
51298;SDS011;37382;45.192;9.790;2023-03-14T05:28:31;25.70;;;15.48;;
51298;SDS011;37382;45.192;9.790;2023-03-14T05:31:18;26.73;;;16.13;;
51298;SDS011;37382;45.192;9.790;2023-03-14T05:33:49;24.00;;;16.50;;
51298;SDS011;37382;45.192;9.790;2023-03-14T05:36:31;28.42;;;16.98;;
51298;SDS011;37382;45.192;9.790;2023-03-14T05:39:13;26.55;;;16.80;;
51298;SDS011;37382;45.192;9.790;2023-03-14T05:41:59;27.90;;;17.67;;
51298;SDS011;37382;45.192;9.790;2023-03-14T05:45:02;25.52;;;16.55;;
51298;SDS011;37382;45.192;9.790;2023-03-14T05:47:48;26.85;;;17.65;;
51298;SDS011;37382;45.192;9.790;2023-03-14T05:50:30;27.85;;;17.85;;
51298;SDS011;37382;45.192;9.790;2023-03-14T05:53:18;25.15;;;17.95;;
51298;SDS011;37382;45.192;9.790;2023-03-14T05:58:44;30.73;;;18.25;;
51298;SDS011;37382;45.192;9.790;2023-03-14T06:01:32;28.35;;;18.55;;
51298;SDS011;37382;45.192;9.790;2023-03-14T06:04:09;27.60;;;17.58;;
51298;SDS011;37382;45.192;9.790;2023-03-14T06:06:37;27.75;;;18.55;;
51298;SDS011;37382;45.192;9.790;2023-03-14T06:09:06;28.15;;;18.25;;
51298;SDS011;37382;45.192;9.790;2023-03-14T06:11:37;34.05;;;18.83;;
51298;SDS011;37382;45.192;9.790;2023-03-14T06:14:07;29.35;;;20.08;;
51298;SDS011;37382;45.192;9.790;2023-03-14T06:16:36;36.03;;;21.02;;
51298;SDS011;37382;45.192;9.790;2023-03-14T06:19:04;47.47;;;27.20;;
51298;SDS011;37382;45.192;9.790;2023-03-14T06:21:32;30.85;;;20.15;;
51298;SDS011;37382;45.192;9.790;2023-03-14T06:24:00;27.35;;;20.30;;
51298;SDS011;37382;45.192;9.790;2023-03-14T06:26:29;28.63;;;21.27;;
51298;SDS011;37382;45.192;9.790;2023-03-14T06:28:57;34.13;;;22.20;;
51298;SDS011;37382;45.192;9.790;2023-03-14T06:31:28;34.75;;;23.92;;
51298;SDS011;37382;45.192;9.790;2023-03-14T06:34:01;31.58;;;22.73;;
51298;SDS011;37382;45.192;9.790;2023-03-14T06:36:31;32.88;;;22.90;;
51298;SDS011;37382;45.192;9.790;2023-03-14T06:38:58;36.95;;;22.20;;
51298;SDS011;37382;45.192;9.790;2023-03-14T06:41:28;32.85;;;20.95;;
51298;SDS011;37382;45.192;9.790;2023-03-14T06:43:58;32.20;;;22.30;;
51298;SDS011;37382;45.192;9.790;2023-03-14T06:46:26;35.08;;;22.75;;
51298;SDS011;37382;45.192;9.790;2023-03-14T06:48:54;34.47;;;22.98;;
51298;SDS011;37382;45.192;9.790;2023-03-14T06:51:22;33.75;;;23.08;;
51298;SDS011;37382;45.192;9.790;2023-03-14T06:53:51;34.17;;;23.60;;
51298;SDS011;37382;45.192;9.790;2023-03-14T06:56:21;36.00;;;25.42;;
51298;SDS011;37382;45.192;9.790;2023-03-14T06:58:49;37.78;;;25.20;;
51298;SDS011;37382;45.192;9.790;2023-03-14T07:01:26;39.90;;;25.60;;
51298;SDS011;37382;45.192;9.790;2023-03-14T07:04:03;29.55;;;21.88;;
51298;SDS011;37382;45.192;9.790;2023-03-14T07:06:32;29.55;;;20.83;;
51298;SDS011;37382;45.192;9.790;2023-03-14T07:09:01;28.88;;;20.90;;
51298;SDS011;37382;45.192;9.790;2023-03-14T07:11:31;26.98;;;20.38;;
51298;SDS011;37382;45.192;9.790;2023-03-14T07:13:59;28.75;;;21.75;;
51298;SDS011;37382;45.192;9.790;2023-03-14T07:16:27;31.63;;;23.98;;
51298;SDS011;37382;45.192;9.790;2023-03-14T07:19:01;33.63;;;21.83;;
51298;SDS011;37382;45.192;9.790;2023-03-14T07:21:31;29.90;;;22.15;;
51298;SDS011;37382;45.192;9.790;2023-03-14T07:23:59;28.27;;;21.85;;
51298;SDS011;37382;45.192;9.790;2023-03-14T07:26:27;25.08;;;20.63;;
51298;SDS011;37382;45.192;9.790;2023-03-14T07:28:55;29.80;;;20.40;;
51298;SDS011;37382;45.192;9.790;2023-03-14T07:31:23;26.40;;;19.38;;
51298;SDS011;37382;45.192;9.790;2023-03-14T07:33:51;27.35;;;20.38;;
51298;SDS011;37382;45.192;9.790;2023-03-14T07:36:21;31.10;;;21.42;;
51298;SDS011;37382;45.192;9.790;2023-03-14T07:38:49;31.40;;;21.45;;
51298;SDS011;37382;45.192;9.790;2023-03-14T07:41:20;29.92;;;21.20;;
51298;SDS011;37382;45.192;9.790;2023-03-14T07:44:08;30.95;;;20.38;;
51298;SDS011;37382;45.192;9.790;2023-03-14T07:46:35;32.33;;;20.55;;
51298;SDS011;37382;45.192;9.790;2023-03-14T07:49:03;29.35;;;20.15;;
51298;SDS011;37382;45.192;9.790;2023-03-14T07:51:31;31.20;;;20.67;;
51298;SDS011;37382;45.192;9.790;2023-03-14T07:53:58;33.53;;;20.45;;
51298;SDS011;37382;45.192;9.790;2023-03-14T07:56:25;31.02;;;21.17;;
51298;SDS011;37382;45.192;9.790;2023-03-14T07:58:53;29.45;;;19.55;;
51298;SDS011;37382;45.192;9.790;2023-03-14T08:01:20;24.77;;;18.67;;
51298;SDS011;37382;45.192;9.790;2023-03-14T08:03:48;29.23;;;18.92;;
51298;SDS011;37382;45.192;9.790;2023-03-14T08:06:16;23.83;;;18.00;;
51298;SDS011;37382;45.192;9.790;2023-03-14T08:08:43;24.15;;;17.73;;
51298;SDS011;37382;45.192;9.790;2023-03-14T08:11:10;26.55;;;19.23;;
51298;SDS011;37382;45.192;9.790;2023-03-14T08:13:38;26.60;;;18.80;;
51298;SDS011;37382;45.192;9.790;2023-03-14T08:16:07;29.15;;;20.50;;
51298;SDS011;37382;45.192;9.790;2023-03-14T08:18:35;28.75;;;18.92;;
51298;SDS011;37382;45.192;9.790;2023-03-14T08:21:02;26.33;;;18.90;;
51298;SDS011;37382;45.192;9.790;2023-03-14T08:23:30;27.63;;;19.52;;
51298;SDS011;37382;45.192;9.790;2023-03-14T08:25:58;27.45;;;19.00;;
51298;SDS011;37382;45.192;9.790;2023-03-14T08:28:26;28.05;;;18.00;;
51298;SDS011;37382;45.192;9.790;2023-03-14T08:30:58;27.88;;;17.20;;
51298;SDS011;37382;45.192;9.790;2023-03-14T08:33:27;20.80;;;15.68;;
51298;SDS011;37382;45.192;9.790;2023-03-14T08:35:57;18.25;;;14.65;;
51298;SDS011;37382;45.192;9.790;2023-03-14T08:38:27;21.07;;;14.23;;
51298;SDS011;37382;45.192;9.790;2023-03-14T08:40:56;20.95;;;13.63;;
51298;SDS011;37382;45.192;9.790;2023-03-14T08:43:28;17.17;;;13.65;;
51298;SDS011;37382;45.192;9.790;2023-03-14T08:46:00;24.35;;;15.85;;
51298;SDS011;37382;45.192;9.790;2023-03-14T08:48:29;20.00;;;15.70;;
51298;SDS011;37382;45.192;9.790;2023-03-14T08:51:04;21.70;;;16.83;;
51298;SDS011;37382;45.192;9.790;2023-03-14T08:53:35;29.98;;;16.35;;
51298;SDS011;37382;45.192;9.790;2023-03-14T08:56:03;21.35;;;16.30;;
51298;SDS011;37382;45.192;9.790;2023-03-14T08:58:33;22.45;;;16.27;;
51298;SDS011;37382;45.192;9.790;2023-03-14T09:01:00;21.42;;;15.88;;
51298;SDS011;37382;45.192;9.790;2023-03-14T09:03:28;24.08;;;17.25;;
51298;SDS011;37382;45.192;9.790;2023-03-14T09:05:56;22.23;;;16.48;;
51298;SDS011;37382;45.192;9.790;2023-03-14T09:08:29;20.73;;;17.23;;
51298;SDS011;37382;45.192;9.790;2023-03-14T09:10:57;24.90;;;19.05;;
51298;SDS011;37382;45.192;9.790;2023-03-14T09:13:25;21.63;;;18.05;;
51298;SDS011;37382;45.192;9.790;2023-03-14T09:15:54;23.02;;;17.63;;
51298;SDS011;37382;45.192;9.790;2023-03-14T09:18:22;29.63;;;17.80;;
51298;SDS011;37382;45.192;9.790;2023-03-14T09:20:49;23.30;;;17.63;;
51298;SDS011;37382;45.192;9.790;2023-03-14T09:23:17;25.27;;;17.83;;
51298;SDS011;37382;45.192;9.790;2023-03-14T09:25:45;29.33;;;20.10;;
51298;SDS011;37382;45.192;9.790;2023-03-14T09:28:12;36.80;;;23.80;;
51298;SDS011;37382;45.192;9.790;2023-03-14T09:30:40;34.35;;;23.10;;
51298;SDS011;37382;45.192;9.790;2023-03-14T09:33:08;32.85;;;21.15;;
51298;SDS011;37382;45.192;9.790;2023-03-14T09:35:35;35.58;;;22.42;;
51298;SDS011;37382;45.192;9.790;2023-03-14T09:38:03;31.55;;;19.00;;
51298;SDS011;37382;45.192;9.790;2023-03-14T09:40:36;25.38;;;17.95;;
51298;SDS011;37382;45.192;9.790;2023-03-14T09:43:05;47.35;;;29.20;;
51298;SDS011;37382;45.192;9.790;2023-03-14T09:45:33;30.52;;;20.48;;
51298;SDS011;37382;45.192;9.790;2023-03-14T09:48:04;31.42;;;19.48;;
51298;SDS011;37382;45.192;9.790;2023-03-14T09:51:06;24.45;;;17.25;;
51298;SDS011;37382;45.192;9.790;2023-03-14T09:53:28;25.73;;;16.73;;
51298;SDS011;37382;45.192;9.790;2023-03-14T09:56:17;24.52;;;17.40;;
51298;SDS011;37382;45.192;9.790;2023-03-14T09:58:56;30.92;;;17.40;;
51298;SDS011;37382;45.192;9.790;2023-03-14T10:01:27;26.97;;;18.03;;
51298;SDS011;37382;45.192;9.790;2023-03-14T10:04:07;25.52;;;17.40;;
51298;SDS011;37382;45.192;9.790;2023-03-14T10:06:41;25.17;;;18.33;;
51298;SDS011;37382;45.192;9.790;2023-03-14T10:09:22;30.77;;;18.40;;
51298;SDS011;37382;45.192;9.790;2023-03-14T10:11:54;27.13;;;17.95;;
51298;SDS011;37382;45.192;9.790;2023-03-14T10:14:34;25.25;;;18.25;;
51298;SDS011;37382;45.192;9.790;2023-03-14T10:17:04;24.77;;;18.00;;
51298;SDS011;37382;45.192;9.790;2023-03-14T10:19:34;32.80;;;18.73;;
51298;SDS011;37382;45.192;9.790;2023-03-14T10:22:03;30.02;;;19.83;;
51298;SDS011;37382;45.192;9.790;2023-03-14T10:24:33;40.58;;;27.90;;
51298;SDS011;37382;45.192;9.790;2023-03-14T10:27:04;29.60;;;19.17;;
51298;SDS011;37382;45.192;9.790;2023-03-14T10:29:33;28.35;;;20.42;;
51298;SDS011;37382;45.192;9.790;2023-03-14T10:32:05;27.80;;;19.42;;
51298;SDS011;37382;45.192;9.790;2023-03-14T10:34:37;20.45;;;16.63;;
51298;SDS011;37382;45.192;9.790;2023-03-14T10:37:22;26.70;;;16.83;;
51298;SDS011;37382;45.192;9.790;2023-03-14T10:39:58;26.90;;;17.30;;
51298;SDS011;37382;45.192;9.790;2023-03-14T10:42:32;20.40;;;15.55;;
51298;SDS011;37382;45.192;9.790;2023-03-14T10:45:22;22.20;;;16.88;;
51298;SDS011;37382;45.192;9.790;2023-03-14T10:47:59;22.00;;;15.60;;
51298;SDS011;37382;45.192;9.790;2023-03-14T10:50:34;20.60;;;15.73;;
51298;SDS011;37382;45.192;9.790;2023-03-14T10:53:03;22.75;;;17.13;;
51298;SDS011;37382;45.192;9.790;2023-03-14T10:55:43;21.38;;;16.77;;
51298;SDS011;37382;45.192;9.790;2023-03-14T10:58:27;23.15;;;16.63;;
51298;SDS011;37382;45.192;9.790;2023-03-14T11:07:03;18.48;;;14.77;;
51298;SDS011;37382;45.192;9.790;2023-03-14T11:09:36;22.80;;;14.75;;
51298;SDS011;37382;45.192;9.790;2023-03-14T11:12:19;28.02;;;16.58;;
51298;SDS011;37382;45.192;9.790;2023-03-14T11:14:54;19.80;;;14.70;;
51298;SDS011;37382;45.192;9.790;2023-03-14T11:17:41;28.42;;;15.93;;
51298;SDS011;37382;45.192;9.790;2023-03-14T11:20:31;25.73;;;15.50;;
51298;SDS011;37382;45.192;9.790;2023-03-14T11:23:14;27.52;;;15.10;;
51298;SDS011;37382;45.192;9.790;2023-03-14T11:28:39;24.13;;;15.32;;
51298;SDS011;37382;45.192;9.790;2023-03-14T11:31:18;20.27;;;15.18;;
51298;SDS011;37382;45.192;9.790;2023-03-14T11:33:56;22.17;;;15.80;;
51298;SDS011;37382;45.192;9.790;2023-03-14T11:36:29;20.75;;;15.20;;
51298;SDS011;37382;45.192;9.790;2023-03-14T11:39:18;22.17;;;16.48;;
51298;SDS011;37382;45.192;9.790;2023-03-14T11:41:48;22.00;;;16.70;;
51298;SDS011;37382;45.192;9.790;2023-03-14T11:44:27;19.50;;;15.68;;
51298;SDS011;37382;45.192;9.790;2023-03-14T11:47:05;22.85;;;16.02;;
51298;SDS011;37382;45.192;9.790;2023-03-14T11:52:10;20.50;;;15.80;;
51298;SDS011;37382;45.192;9.790;2023-03-14T11:54:47;19.30;;;13.63;;
51298;SDS011;37382;45.192;9.790;2023-03-14T11:57:20;19.13;;;14.48;;
51298;SDS011;37382;45.192;9.790;2023-03-14T11:59:52;18.63;;;13.90;;
51298;SDS011;37382;45.192;9.790;2023-03-14T12:08:13;21.58;;;13.88;;
51298;SDS011;37382;45.192;9.790;2023-03-14T12:10:54;21.20;;;13.95;;
51298;SDS011;37382;45.192;9.790;2023-03-14T12:13:30;19.10;;;14.63;;
51298;SDS011;37382;45.192;9.790;2023-03-14T12:16:00;20.70;;;14.73;;
51298;SDS011;37382;45.192;9.790;2023-03-14T12:18:34;29.98;;;15.75;;
51298;SDS011;37382;45.192;9.790;2023-03-14T12:21:07;19.65;;;15.57;;
51298;SDS011;37382;45.192;9.790;2023-03-14T12:23:44;20.60;;;15.52;;
51298;SDS011;37382;45.192;9.790;2023-03-14T12:26:26;23.08;;;15.77;;
51298;SDS011;37382;45.192;9.790;2023-03-14T12:31:46;17.40;;;14.20;;
51298;SDS011;37382;45.192;9.790;2023-03-14T12:34:40;21.70;;;15.20;;
51298;SDS011;37382;45.192;9.790;2023-03-14T12:37:45;20.50;;;14.32;;
51298;SDS011;37382;45.192;9.790;2023-03-14T12:40:15;21.95;;;14.32;;
51298;SDS011;37382;45.192;9.790;2023-03-14T12:47:55;19.48;;;14.93;;
51298;SDS011;37382;45.192;9.790;2023-03-14T12:50:37;17.85;;;14.35;;
51298;SDS011;37382;45.192;9.790;2023-03-14T12:58:31;14.37;;;12.27;;
51298;SDS011;37382;45.192;9.790;2023-03-14T13:01:21;16.92;;;11.88;;
51298;SDS011;37382;45.192;9.790;2023-03-14T13:03:52;18.73;;;12.85;;
51298;SDS011;37382;45.192;9.790;2023-03-14T13:12:11;15.05;;;11.75;;
51298;SDS011;37382;45.192;9.790;2023-03-14T13:14:43;12.60;;;11.00;;
51298;SDS011;37382;45.192;9.790;2023-03-14T13:20:02;17.13;;;11.13;;
51298;SDS011;37382;45.192;9.790;2023-03-14T13:22:37;15.43;;;11.25;;
51298;SDS011;37382;45.192;9.790;2023-03-14T13:25:07;14.70;;;10.95;;
51298;SDS011;37382;45.192;9.790;2023-03-14T13:27:38;13.77;;;11.52;;
51298;SDS011;37382;45.192;9.790;2023-03-14T13:30:28;18.50;;;10.75;;
51298;SDS011;37382;45.192;9.790;2023-03-14T13:33:03;13.77;;;9.65;;
51298;SDS011;37382;45.192;9.790;2023-03-14T13:36:06;13.38;;;10.57;;
51298;SDS011;37382;45.192;9.790;2023-03-14T13:38:28;16.52;;;10.63;;
51298;SDS011;37382;45.192;9.790;2023-03-14T13:40:58;12.35;;;10.27;;
51298;SDS011;37382;45.192;9.790;2023-03-14T13:43:28;14.73;;;11.70;;
51298;SDS011;37382;45.192;9.790;2023-03-14T13:46:02;20.75;;;13.30;;
51298;SDS011;37382;45.192;9.790;2023-03-14T13:49:16;16.40;;;10.20;;
51298;SDS011;37382;45.192;9.790;2023-03-14T13:51:37;13.05;;;9.90;;
51298;SDS011;37382;45.192;9.790;2023-03-14T13:54:13;14.60;;;10.27;;
51298;SDS011;37382;45.192;9.790;2023-03-14T13:56:42;17.38;;;11.73;;
51298;SDS011;37382;45.192;9.790;2023-03-14T13:59:23;13.50;;;11.00;;
51298;SDS011;37382;45.192;9.790;2023-03-14T14:01:58;15.93;;;11.93;;
51298;SDS011;37382;45.192;9.790;2023-03-14T14:04:32;17.35;;;10.93;;
51298;SDS011;37382;45.192;9.790;2023-03-14T14:07:07;19.15;;;12.10;;
51298;SDS011;37382;45.192;9.790;2023-03-14T14:09:41;22.00;;;10.68;;
51298;SDS011;37382;45.192;9.790;2023-03-14T14:12:13;14.02;;;10.88;;
51298;SDS011;37382;45.192;9.790;2023-03-14T14:14:46;13.00;;;10.25;;
51298;SDS011;37382;45.192;9.790;2023-03-14T14:17:19;14.63;;;10.38;;
51298;SDS011;37382;45.192;9.790;2023-03-14T14:19:54;17.70;;;10.43;;
51298;SDS011;37382;45.192;9.790;2023-03-14T14:22:23;13.05;;;10.52;;
51298;SDS011;37382;45.192;9.790;2023-03-14T14:24:52;18.65;;;10.18;;
51298;SDS011;37382;45.192;9.790;2023-03-14T14:27:24;11.40;;;10.13;;
51298;SDS011;37382;45.192;9.790;2023-03-14T14:32:47;17.20;;;10.18;;
51298;SDS011;37382;45.192;9.790;2023-03-14T14:35:26;14.93;;;10.60;;
51298;SDS011;37382;45.192;9.790;2023-03-14T14:37:59;11.95;;;9.32;;
51298;SDS011;37382;45.192;9.790;2023-03-14T14:40:29;12.25;;;9.43;;
51298;SDS011;37382;45.192;9.790;2023-03-14T14:43:04;14.52;;;10.63;;
51298;SDS011;37382;45.192;9.790;2023-03-14T14:45:33;11.82;;;9.07;;
51298;SDS011;37382;45.192;9.790;2023-03-14T14:50:33;10.07;;;9.00;;
51298;SDS011;37382;45.192;9.790;2023-03-14T14:56:15;11.95;;;9.50;;
51298;SDS011;37382;45.192;9.790;2023-03-14T14:58:49;13.23;;;10.05;;
51298;SDS011;37382;45.192;9.790;2023-03-14T15:01:21;13.45;;;10.55;;
51298;SDS011;37382;45.192;9.790;2023-03-14T15:03:51;12.93;;;10.82;;
51298;SDS011;37382;45.192;9.790;2023-03-14T15:06:21;12.57;;;10.57;;
51298;SDS011;37382;45.192;9.790;2023-03-14T15:08:54;11.75;;;10.00;;
51298;SDS011;37382;45.192;9.790;2023-03-14T15:11:23;14.90;;;10.65;;
51298;SDS011;37382;45.192;9.790;2023-03-14T15:13:53;13.50;;;10.97;;
51298;SDS011;37382;45.192;9.790;2023-03-14T15:16:22;22.23;;;11.75;;
51298;SDS011;37382;45.192;9.790;2023-03-14T15:18:55;14.93;;;11.43;;
51298;SDS011;37382;45.192;9.790;2023-03-14T15:21:24;14.40;;;12.20;;
51298;SDS011;37382;45.192;9.790;2023-03-14T15:23:53;13.60;;;11.90;;
51298;SDS011;37382;45.192;9.790;2023-03-14T15:26:22;17.67;;;13.68;;
51298;SDS011;37382;45.192;9.790;2023-03-14T15:28:51;16.65;;;13.50;;
51298;SDS011;37382;45.192;9.790;2023-03-14T15:31:19;13.65;;;11.75;;
51298;SDS011;37382;45.192;9.790;2023-03-14T15:33:50;16.97;;;12.80;;
51298;SDS011;37382;45.192;9.790;2023-03-14T15:36:28;14.88;;;11.90;;
51298;SDS011;37382;45.192;9.790;2023-03-14T15:39:01;12.68;;;10.90;;
51298;SDS011;37382;45.192;9.790;2023-03-14T15:41:30;15.95;;;11.80;;
51298;SDS011;37382;45.192;9.790;2023-03-14T15:43:59;16.45;;;11.48;;
51298;SDS011;37382;45.192;9.790;2023-03-14T15:46:27;23.90;;;17.88;;
51298;SDS011;37382;45.192;9.790;2023-03-14T15:48:57;20.08;;;12.13;;
51298;SDS011;37382;45.192;9.790;2023-03-14T15:51:25;16.60;;;12.07;;
51298;SDS011;37382;45.192;9.790;2023-03-14T15:53:52;30.45;;;17.50;;
51298;SDS011;37382;45.192;9.790;2023-03-14T15:56:20;16.38;;;13.20;;
51298;SDS011;37382;45.192;9.790;2023-03-14T15:58:51;15.63;;;13.05;;
51298;SDS011;37382;45.192;9.790;2023-03-14T16:01:19;17.52;;;13.93;;